Time;durP1;ratioP1;P1;durP2;ratioP2;P2;SDS_P1;SDS_P2;PMS_P1;PMS_P2;Temp;Humidity;BMP_temperature;BMP_pressure;BME280_temperature;BME280_humidity;BME280_pressure;Samples;Min_cycle;Max_cycle;Signal;HPM_P1;HPM_P2
2022/10/08 00:01:49;;;;;;;7.93;3.20;;;12.50;99.90;;;;;;5092198;28;20071;-61
2022/10/08 00:04:16;;;;;;;13.27;3.13;;;12.10;99.90;;;;;;5092856;28;20051;-60
2022/10/08 00:06:43;;;;;;;8.70;3.70;;;12.50;99.90;;;;;;5092715;28;20047;-62
2022/10/08 00:09:11;;;;;;;7.60;4.00;;;12.50;99.90;;;;;;5073919;28;20532;-61
2022/10/08 00:11:39;;;;;;;8.05;3.30;;;12.50;99.90;;;;;;5092618;28;20519;-60
2022/10/08 00:14:08;;;;;;;10.18;3.30;;;12.50;99.90;;;;;;5092766;28;20438;-60
2022/10/08 00:16:36;;;;;;;7.03;3.20;;;12.50;99.90;;;;;;5092252;28;20131;-60
2022/10/08 00:19:05;;;;;;;6.65;2.97;;;12.50;99.90;;;;;;5092376;28;20491;-61
2022/10/08 00:21:34;;;;;;;10.00;2.65;;;12.50;99.90;;;;;;5092475;28;20446;-61
2022/10/08 00:24:02;;;;;;;10.52;3.40;;;12.50;99.90;;;;;;5091918;28;20552;-60
2022/10/08 00:26:32;;;;;;;7.38;2.95;;;12.40;99.90;;;;;;5092662;28;20437;-61
2022/10/08 00:29:01;;;;;;;8.82;3.83;;;12.40;99.90;;;;;;5097246;28;20051;-60
2022/10/08 00:31:31;;;;;;;9.57;3.03;;;12.40;99.90;;;;;;5112622;28;20096;-61
2022/10/08 00:33:59;;;;;;;9.90;3.28;;;12.40;99.90;;;;;;5112881;28;20413;-61
2022/10/08 00:36:28;;;;;;;8.48;3.20;;;12.40;99.90;;;;;;5112840;28;20047;-60
2022/10/08 00:38:56;;;;;;;9.18;3.15;;;12.40;99.90;;;;;;5112497;28;20453;-60
2022/10/08 00:41:26;;;;;;;8.65;3.08;;;12.40;99.90;;;;;;5112488;28;20052;-60
2022/10/08 00:43:56;;;;;;;6.85;2.38;;;12.40;99.90;;;;;;5112786;28;20044;-60
2022/10/08 00:46:26;;;;;;;;;;;12.40;99.90;;;;;;5113520;28;20059;-61
2022/10/08 00:49:01;;;;;;;13.38;2.90;;;12.40;99.90;;;;;;5094423;28;19923;-61
2022/10/08 00:51:28;;;;;;;9.10;3.15;;;12.40;99.90;;;;;;5094431;28;20047;-60
2022/10/08 00:53:55;;;;;;;6.47;3.13;;;12.40;99.90;;;;;;5111978;28;20048;-61
2022/10/08 00:56:23;;;;;;;7.82;2.30;;;12.20;99.90;;;;;;5112356;28;20051;-60
2022/10/08 00:58:51;;;;;;;5.82;2.45;;;12.40;99.90;;;;;;5112386;28;20108;-60
2022/10/08 01:01:20;;;;;;;8.00;2.25;;;12.40;99.90;;;;;;5094744;28;20569;-60
2022/10/08 01:03:47;;;;;;;7.32;2.60;;;12.30;99.90;;;;;;5112534;28;20564;-60
2022/10/08 01:06:23;;;;;;;8.95;2.28;;;12.40;99.90;;;;;;5112389;28;20051;-60
2022/10/08 01:08:58;;;;;;;7.72;2.40;;;12.40;99.90;;;;;;5112237;28;20047;-60
2022/10/08 01:11:40;;;;;;;10.68;2.58;;;12.40;99.90;;;;;;5094826;28;20056;-61
2022/10/08 01:14:19;;;;;;;3.88;1.83;;;12.30;99.90;;;;;;5112126;28;20043;-60
2022/10/08 01:16:58;;;;;;;6.45;1.85;;;12.30;99.90;;;;;;5112523;28;20127;-60
2022/10/08 01:19:50;;;;;;;4.93;1.63;;;12.30;99.90;;;;;;5094071;28;20048;-61
2022/10/08 01:22:34;;;;;;;6.88;1.95;;;12.30;99.90;;;;;;5112433;28;20548;-61
2022/10/08 01:28:05;;;;;;;5.90;2.03;;;12.30;99.90;;;;;;5111956;28;20044;-60
2022/10/08 01:30:35;;;;;;;5.45;2.00;;;12.30;99.90;;;;;;5111966;28;20052;-60
2022/10/08 01:33:11;;;;;;;5.32;2.55;;;12.30;99.90;;;;;;5116167;28;20044;-61
2022/10/08 01:35:43;;;;;;;6.25;2.10;;;12.20;99.90;;;;;;5097652;28;20135;-60
2022/10/08 01:38:15;;;;;;;7.97;2.30;;;12.20;99.90;;;;;;5115491;28;20452;-60
2022/10/08 01:40:45;;;;;;;5.15;2.05;;;12.20;99.90;;;;;;5115568;28;20092;-61
2022/10/08 01:43:18;;;;;;;5.22;2.08;;;12.10;99.90;;;;;;5115914;28;20051;-61
2022/10/08 01:45:49;;;;;;;4.50;2.35;;;12.10;99.90;;;;;;5115791;28;20059;-62
2022/10/08 01:48:21;;;;;;;8.38;2.67;;;12.00;99.90;;;;;;5115443;28;20044;-60
2022/10/08 01:50:53;;;;;;;3.20;1.80;;;11.90;99.90;;;;;;5113438;28;20119;-61
2022/10/08 01:53:24;;;;;;;6.20;2.00;;;11.90;99.90;;;;;;5094893;28;20105;-60
2022/10/08 01:55:54;;;;;;;7.50;2.08;;;11.80;99.90;;;;;;5096432;28;20051;-61
2022/10/08 01:58:29;;;;;;;7.72;1.95;;;11.90;99.90;;;;;;5115802;28;20055;-60
2022/10/08 02:01:01;;;;;;;3.75;1.90;;;11.80;99.90;;;;;;5108601;27;20048;-60
2022/10/08 02:03:28;;;;;;;5.80;2.22;;;11.60;99.90;;;;;;5094521;28;20044;-61
2022/10/08 02:05:56;;;;;;;5.22;2.00;;;11.60;99.90;;;;;;5095089;28;20056;-61
2022/10/08 02:08:23;;;;;;;4.32;1.77;;;11.50;99.90;;;;;;5103899;28;20491;-61
2022/10/08 02:10:51;;;;;;;3.40;1.83;;;11.50;99.90;;;;;;5115596;28;20475;-60
2022/10/08 02:13:19;;;;;;;9.73;2.28;;;11.40;99.90;;;;;;5096714;28;20063;-60
2022/10/08 02:15:54;;;;;;;9.85;2.03;;;11.30;99.90;;;;;;5114936;28;20137;-61
2022/10/08 02:18:28;;;;;;;4.88;2.30;;;11.30;99.90;;;;;;5115332;28;20043;-61
2022/10/08 02:20:59;;;;;;;7.57;2.17;;;11.20;99.90;;;;;;5115288;28;20101;-61
2022/10/08 02:23:28;;;;;;;;;;;11.20;99.90;;;;;;5096732;27;20116;-60
2022/10/08 02:25:59;;;;;;;6.93;2.30;;;11.20;99.90;;;;;;5114776;28;20006;-60
2022/10/08 02:28:31;;;;;;;4.35;1.83;;;11.10;99.90;;;;;;5096654;28;20108;-60
2022/10/08 02:31:06;;;;;;;6.22;2.00;;;11.00;99.90;;;;;;5114832;28;20055;-61
2022/10/08 02:33:37;;;;;;;7.57;2.60;;;11.00;99.90;;;;;;5114761;28;20051;-61
2022/10/08 02:36:07;;;;;;;4.90;2.28;;;11.00;99.90;;;;;;5115298;28;20044;-60
2022/10/08 02:38:39;;;;;;;9.32;2.42;;;11.00;99.90;;;;;;5113104;28;20134;-61
2022/10/08 02:41:08;;;;;;;10.82;2.60;;;10.90;99.90;;;;;;5114914;28;20100;-61
2022/10/08 02:43:39;;;;;;;10.40;3.10;;;10.90;99.90;;;;;;5113206;28;20093;-61
2022/10/08 02:46:13;;;;;;;6.68;2.50;;;10.90;99.90;;;;;;5114915;28;20543;-61
2022/10/08 02:48:44;;;;;;;4.82;2.25;;;10.80;99.90;;;;;;5114429;28;20119;-61
2022/10/08 02:51:14;;;;;;;6.38;2.75;;;10.80;99.90;;;;;;5114181;28;20047;-60
2022/10/08 02:53:42;;;;;;;8.73;2.30;;;10.80;99.90;;;;;;5114249;28;20051;-60
2022/10/08 02:56:14;;;;;;;9.32;2.50;;;10.70;99.90;;;;;;5096273;28;20055;-60
2022/10/08 02:58:42;;;;;;;15.13;2.60;;;10.70;99.90;;;;;;5113860;28;20058;-61
2022/10/08 03:01:15;;;;;;;9.15;2.55;;;10.70;99.90;;;;;;5114069;28;20096;-60
2022/10/08 03:03:48;;;;;;;5.88;2.17;;;10.60;99.90;;;;;;5096381;28;20108;-61
2022/10/08 03:06:17;;;;;;;5.35;2.05;;;10.70;99.90;;;;;;5114140;28;20092;-60
2022/10/08 03:08:47;;;;;;;9.20;2.53;;;10.60;99.90;;;;;;5114299;28;20048;-61
2022/10/08 03:11:15;;;;;;;;;;;10.60;99.90;;;;;;5114744;28;20135;-60
2022/10/08 03:13:44;;;;;;;6.90;2.40;;;10.60;99.90;;;;;;5113558;28;19919;-61
2022/10/08 03:16:15;;;;;;;7.43;2.70;;;10.60;99.90;;;;;;5113626;28;20478;-61
2022/10/08 03:18:43;;;;;;;;;;;10.60;99.90;;;;;;5114202;28;20426;-61
2022/10/08 03:21:12;;;;;;;12.73;3.60;;;10.60;99.90;;;;;;5102245;28;19920;-61
2022/10/08 03:23:40;;;;;;;13.43;3.20;;;10.60;99.90;;;;;;5111405;28;20521;-61
2022/10/08 03:26:07;;;;;;;16.42;3.60;;;10.60;99.90;;;;;;5113024;28;20048;-60
2022/10/08 03:28:34;;;;;;;10.82;3.08;;;10.60;99.90;;;;;;5112069;28;20100;-61
2022/10/08 03:31:04;;;;;;;7.80;3.15;;;10.70;99.90;;;;;;5112954;28;20052;-61
2022/10/08 03:33:33;;;;;;;20.02;3.35;;;10.70;99.90;;;;;;5113010;28;20048;-61
2022/10/08 03:36:00;;;;;;;11.43;3.20;;;10.70;99.90;;;;;;5113654;28;20055;-61
2022/10/08 03:38:27;;;;;;;14.80;4.60;;;10.70;99.90;;;;;;5095426;28;20051;-59
2022/10/08 03:40:55;;;;;;;7.88;3.53;;;10.80;99.90;;;;;;5113033;28;20466;-60
2022/10/08 03:43:22;;;;;;;11.48;3.40;;;10.80;99.90;;;;;;5095115;28;20491;-61
2022/10/08 03:45:51;;;;;;;11.45;3.17;;;10.80;99.90;;;;;;5095031;28;20560;-60
2022/10/08 03:48:18;;;;;;;12.70;3.47;;;10.80;99.90;;;;;;5094758;28;20517;-60
2022/10/08 03:50:52;;;;;;;9.02;3.30;;;10.80;99.90;;;;;;5095357;28;20055;-61
2022/10/08 03:53:19;;;;;;;7.03;3.30;;;10.80;99.90;;;;;;5112941;28;20127;-61
2022/10/08 03:55:46;;;;;;;7.68;3.83;;;10.80;99.90;;;;;;5094630;28;20104;-61
2022/10/08 03:58:13;;;;;;;10.10;3.35;;;10.80;99.90;;;;;;5113147;28;20100;-60
2022/10/08 04:00:41;;;;;;;9.40;3.40;;;10.90;99.90;;;;;;5113440;28;20043;-60
2022/10/08 04:03:08;;;;;;;10.85;3.55;;;10.80;99.90;;;;;;5112264;28;20069;-60
2022/10/08 04:05:35;;;;;;;9.52;3.58;;;10.70;99.90;;;;;;5113064;28;20453;-60
2022/10/08 04:08:03;;;;;;;8.38;3.40;;;10.70;99.90;;;;;;5094195;28;20054;-60
2022/10/08 04:10:30;;;;;;;14.52;3.45;;;10.70;99.90;;;;;;5112996;28;20044;-61
2022/10/08 04:12:56;;;;;;;7.82;3.40;;;10.70;99.90;;;;;;5092721;28;20445;-61
2022/10/08 04:15:23;;;;;;;11.77;3.30;;;10.60;99.90;;;;;;5112815;28;20101;-60
2022/10/08 04:17:50;;;;;;;8.70;3.00;;;10.60;99.90;;;;;;5113300;28;20105;-61
2022/10/08 04:20:17;;;;;;;12.52;3.53;;;10.60;99.90;;;;;;5112927;28;20047;-60
2022/10/08 04:22:44;;;;;;;11.98;3.65;;;10.50;99.90;;;;;;5112322;28;20056;-60
2022/10/08 04:25:12;;;;;;;10.63;3.28;;;10.50;99.90;;;;;;5094872;28;20138;-60
2022/10/08 04:27:39;;;;;;;11.98;3.30;;;10.40;99.90;;;;;;5112874;28;20059;-59
2022/10/08 04:30:07;;;;;;;10.38;3.38;;;10.40;99.90;;;;;;5094063;28;20109;-61
2022/10/08 04:32:34;;;;;;;8.82;2.85;;;10.40;99.90;;;;;;5112935;28;20043;-61
2022/10/08 04:35:01;;;;;;;9.43;3.50;;;10.40;99.90;;;;;;5103391;28;20047;-60
2022/10/08 04:37:28;;;;;;;10.77;3.50;;;10.30;99.90;;;;;;5112638;28;20063;-60
2022/10/08 04:39:55;;;;;;;11.38;3.33;;;10.30;99.90;;;;;;5113037;28;20044;-60
2022/10/08 04:42:23;;;;;;;8.85;3.33;;;10.20;99.90;;;;;;5113122;28;20047;-60
2022/10/08 04:44:50;;;;;;;11.05;3.55;;;10.20;99.90;;;;;;5094261;28;20112;-59
2022/10/08 04:47:17;;;;;;;10.25;2.97;;;10.10;99.90;;;;;;5094178;28;20051;-59
2022/10/08 04:49:44;;;;;;;9.52;3.33;;;10.10;99.90;;;;;;5112457;28;20043;-60
2022/10/08 04:52:12;;;;;;;14.63;3.60;;;10.10;99.90;;;;;;5094295;28;20056;-60
2022/10/08 04:54:39;;;;;;;12.88;3.70;;;10.00;99.90;;;;;;5094633;28;20056;-60
2022/10/08 04:57:06;;;;;;;9.40;3.22;;;10.00;99.90;;;;;;5112636;28;20052;-61
2022/10/08 04:59:34;;;;;;;12.23;4.10;;;10.00;99.90;;;;;;5094127;28;20055;-60
2022/10/08 05:02:01;;;;;;;10.60;2.92;;;9.90;99.90;;;;;;5112634;28;20449;-60
2022/10/08 05:04:28;;;;;;;11.63;3.20;;;9.90;99.90;;;;;;5112106;28;20051;-61
2022/10/08 05:06:55;;;;;;;15.15;3.55;;;9.90;99.90;;;;;;5115106;28;20047;-60
2022/10/08 05:09:22;;;;;;;8.38;3.33;;;9.90;99.90;;;;;;5116394;28;20422;-60
2022/10/08 05:11:50;;;;;;;12.52;3.15;;;9.90;99.90;;;;;;5116307;28;20081;-61
2022/10/08 05:14:17;;;;;;;10.57;3.42;;;9.80;99.90;;;;;;5116533;28;20357;-59
2022/10/08 05:16:45;;;;;;;12.93;3.35;;;9.80;99.90;;;;;;5116230;28;20047;-59
2022/10/08 05:19:12;;;;;;;11.88;3.58;;;9.80;99.90;;;;;;5115982;28;20066;-60
2022/10/08 05:21:39;;;;;;;15.85;3.45;;;9.70;99.90;;;;;;5115896;28;20114;-60
2022/10/08 05:24:07;;;;;;;12.07;3.75;;;9.70;99.90;;;;;;5116487;28;20112;-60
2022/10/08 05:26:36;;;;;;;10.57;3.08;;;9.70;99.90;;;;;;5115882;28;20052;-60
2022/10/08 05:29:03;;;;;;;12.52;3.25;;;9.70;99.90;;;;;;5092112;28;20048;-59
2022/10/08 05:31:30;;;;;;;13.50;4.00;;;9.60;99.90;;;;;;5095777;28;20052;-60
2022/10/08 05:34:00;;;;;;;13.52;3.53;;;9.60;99.90;;;;;;5095116;28;20461;-60
2022/10/08 05:36:28;;;;;;;15.63;3.90;;;9.60;99.90;;;;;;5095298;28;20052;-61
2022/10/08 05:38:56;;;;;;;12.23;3.75;;;9.60;99.90;;;;;;5077398;28;20545;-60
2022/10/08 05:41:25;;;;;;;13.18;3.17;;;9.60;99.90;;;;;;5095083;28;20052;-61
2022/10/08 05:43:55;;;;;;;16.42;3.25;;;9.60;99.90;;;;;;5094978;28;20109;-61
2022/10/08 05:46:24;;;;;;;15.73;3.88;;;9.60;99.90;;;;;;5095217;28;20048;-60
2022/10/08 05:48:53;;;;;;;13.35;4.00;;;9.50;99.90;;;;;;5077251;28;20056;-59
2022/10/08 05:51:22;;;;;;;10.75;3.33;;;9.50;99.90;;;;;;5094855;28;20105;-60
2022/10/08 05:53:52;;;;;;;11.40;2.95;;;9.70;99.90;;;;;;5060480;28;20060;-61
2022/10/08 05:56:21;;;;;;;14.07;3.63;;;10.00;99.90;;;;;;5073163;28;20051;-59
2022/10/08 05:58:49;;;;;;;6.85;3.13;;;10.40;99.90;;;;;;5070551;28;20561;-60
2022/10/08 06:01:20;;;;;;;13.43;3.53;;;10.50;99.90;;;;;;5086080;28;20044;-61
2022/10/08 06:03:49;;;;;;;11.35;3.88;;;10.50;99.90;;;;;;5071004;28;20117;-60
2022/10/08 06:06:16;;;;;;;7.93;3.83;;;10.60;99.90;;;;;;5067664;28;20130;-60
2022/10/08 06:08:44;;;;;;;8.85;2.58;;;10.50;99.90;;;;;;5069119;28;20104;-60
2022/10/08 06:11:11;;;;;;;10.70;2.90;;;10.70;99.90;;;;;;5087571;28;20098;-59
2022/10/08 06:13:38;;;;;;;10.27;3.60;;;10.60;99.90;;;;;;5087239;28;20453;-60
2022/10/08 06:16:07;;;;;;;12.23;3.22;;;10.70;99.90;;;;;;5073993;28;20044;-60
2022/10/08 06:18:36;;;;;;;13.27;2.70;;;10.80;99.90;;;;;;5086826;28;20401;-60
2022/10/08 06:21:04;;;;;;;9.18;2.60;;;10.90;99.90;;;;;;5085499;28;20048;-61
2022/10/08 06:23:31;;;;;;;6.78;2.72;;;11.10;99.90;;;;;;5088798;28;20048;-61
2022/10/08 06:26:03;;;;;;;9.00;3.05;;;11.10;99.90;;;;;;5084910;28;20102;-60
2022/10/08 06:28:30;;;;;;;7.60;2.35;;;11.20;99.90;;;;;;5084681;28;20044;-60
2022/10/08 06:30:58;;;;;;;8.60;3.05;;;11.20;99.90;;;;;;5108620;28;20044;-60
2022/10/08 06:33:25;;;;;;;9.50;2.30;;;11.30;99.90;;;;;;5103944;28;20457;-60
2022/10/08 06:35:52;;;;;;;10.50;2.88;;;11.30;99.90;;;;;;5106097;28;20105;-60
2022/10/08 06:38:19;;;;;;;11.68;2.85;;;11.10;99.90;;;;;;5106421;28;20496;-61
2022/10/08 06:40:46;;;;;;;7.43;2.28;;;11.10;99.90;;;;;;5104657;28;20055;-60
2022/10/08 06:43:15;;;;;;;15.60;3.03;;;11.10;99.90;;;;;;5104999;28;20118;-59
2022/10/08 06:45:44;;;;;;;8.13;3.00;;;11.20;99.90;;;;;;5086960;28;20093;-59
2022/10/08 06:48:11;;;;;;;6.63;2.10;;;11.40;99.90;;;;;;5088690;28;20203;-61
2022/10/08 06:50:39;;;;;;;10.02;2.67;;;11.40;99.90;;;;;;5108266;28;20089;-61
2022/10/08 06:53:08;;;;;;;8.90;2.95;;;11.40;99.90;;;;;;5092709;28;20490;-61
2022/10/08 06:55:35;;;;;;;6.22;1.75;;;11.40;99.90;;;;;;5106414;28;20518;-60
2022/10/08 06:58:03;;;;;;;5.85;1.80;;;11.40;99.90;;;;;;5105636;28;20553;-61
2022/10/08 07:00:32;;;;;;;5.30;1.30;;;11.30;99.90;;;;;;5108935;28;20051;-60
2022/10/08 07:02:59;;;;;;;7.88;2.10;;;11.20;99.90;;;;;;5104740;28;20040;-61
2022/10/08 07:05:26;;;;;;;5.78;1.85;;;11.20;99.90;;;;;;5105288;28;20093;-61
2022/10/08 07:07:53;;;;;;;3.67;1.45;;;11.10;99.90;;;;;;5103558;28;20039;-60
2022/10/08 07:10:19;;;;;;;3.03;1.25;;;11.20;99.90;;;;;;5109520;28;20450;-60
2022/10/08 07:12:46;;;;;;;6.72;1.67;;;11.30;99.90;;;;;;5085005;28;20062;-60
2022/10/08 07:15:13;;;;;;;7.28;1.70;;;11.30;99.90;;;;;;5104814;28;20043;-61
2022/10/08 07:17:41;;;;;;;5.30;2.10;;;11.40;99.90;;;;;;5087219;28;20097;-60
2022/10/08 07:20:09;;;;;;;5.28;1.35;;;11.70;99.90;;;;;;5081013;28;20484;-61
2022/10/08 07:22:35;;;;;;;7.05;2.05;;;12.70;99.90;;;;;;5098026;28;20196;-61
2022/10/08 07:25:02;;;;;;;9.20;2.08;;;14.00;99.90;;;;;;5073572;28;20063;-61
2022/10/08 07:27:29;;;;;;;9.23;1.95;;;15.40;99.90;;;;;;5079227;28;20058;-60
2022/10/08 07:29:56;;;;;;;5.80;1.75;;;16.20;99.90;;;;;;5111014;28;20047;-60
2022/10/08 07:32:23;;;;;;;7.93;2.28;;;17.10;99.90;;;;;;5080879;28;20052;-61
2022/10/08 07:34:51;;;;;;;5.88;1.77;;;18.10;99.90;;;;;;5082457;28;20495;-60
2022/10/08 07:37:20;;;;;;;5.40;1.95;;;18.40;99.90;;;;;;5092221;28;20052;-59
2022/10/08 07:39:47;;;;;;;7.18;1.55;;;18.20;99.90;;;;;;5091620;28;20080;-60
2022/10/08 07:42:14;;;;;;;8.27;2.08;;;17.40;99.90;;;;;;5091594;28;20059;-61
2022/10/08 07:44:41;;;;;;;6.13;1.63;;;16.30;99.90;;;;;;5081207;28;20051;-61
2022/10/08 07:47:08;;;;;;;6.13;1.77;;;15.70;99.90;;;;;;5087838;28;20487;-61
2022/10/08 07:49:35;;;;;;;5.75;1.80;;;15.60;99.90;;;;;;5078068;28;20047;-61
2022/10/08 07:52:04;;;;;;;6.55;2.03;;;16.40;99.90;;;;;;5094334;28;20066;-61
2022/10/08 07:54:31;;;;;;;7.18;2.00;;;17.90;99.90;;;;;;5099204;28;20060;-61
2022/10/08 07:57:00;;;;;;;10.90;1.90;;;18.70;99.90;;;;;;5101268;28;20450;-60
2022/10/08 07:59:27;;;;;;;5.80;1.48;;;19.70;99.90;;;;;;5097522;28;20126;-60
2022/10/08 08:01:54;;;;;;;4.13;1.52;;;20.10;99.90;;;;;;5084022;28;20555;-61
2022/10/08 08:04:21;;;;;;;4.68;1.45;;;20.60;99.90;;;;;;5092576;28;20052;-60
2022/10/08 08:06:48;;;;;;;6.47;1.80;;;21.20;99.90;;;;;;5094389;28;20059;-60
2022/10/08 08:09:17;;;;;;;7.53;1.33;;;21.40;99.90;;;;;;5074917;28;20491;-60
2022/10/08 08:11:45;;;;;;;5.05;1.40;;;21.40;99.90;;;;;;5080010;28;20115;-61
2022/10/08 08:14:12;;;;;;;4.35;1.42;;;21.70;99.90;;;;;;5088742;28;20058;-60
2022/10/08 08:16:39;;;;;;;4.93;1.05;;;22.00;99.90;;;;;;5107670;28;20636;-61
2022/10/08 08:19:07;;;;;;;5.80;1.50;;;22.30;98.80;;;;;;5091667;28;20101;-60
2022/10/08 08:21:36;;;;;;;4.72;1.60;;;22.40;97.50;;;;;;5081977;28;20051;-61
2022/10/08 08:24:04;;;;;;;5.53;1.38;;;22.80;97.30;;;;;;5092716;28;20085;-61
2022/10/08 08:26:35;;;;;;;4.13;1.27;;;22.90;96.80;;;;;;5077009;28;20071;-61
2022/10/08 08:29:04;;;;;;;5.47;1.40;;;22.80;96.80;;;;;;5075911;28;20579;-62
2022/10/08 08:31:32;;;;;;;4.18;1.42;;;22.40;96.00;;;;;;5090493;28;20556;-60
2022/10/08 08:34:01;;;;;;;5.97;1.90;;;22.60;96.50;;;;;;5083395;28;20051;-61
2022/10/08 08:36:31;;;;;;;5.00;1.50;;;21.90;97.40;;;;;;5090727;28;20487;-61
2022/10/08 08:38:59;;;;;;;4.68;1.35;;;20.90;98.80;;;;;;5080931;28;20093;-60
2022/10/08 08:41:46;;;;;;;5.18;1.45;;;20.30;99.90;;;;;;5079256;28;20093;-60
2022/10/08 08:44:18;;;;;;;3.00;1.00;;;20.30;99.90;;;;;;5094658;28;20044;-60
2022/10/08 08:46:51;;;;;;;4.63;1.42;;;20.50;99.90;;;;;;5076966;28;20514;-60
2022/10/08 08:49:24;;;;;;;4.03;0.93;;;21.20;99.90;;;;;;5077138;28;20538;-61
2022/10/08 08:51:52;;;;;;;4.47;1.30;;;20.80;99.80;;;;;;5095977;28;20479;-60
2022/10/08 08:54:19;;;;;;;9.40;1.55;;;20.00;99.90;;;;;;5077354;28;20465;-61
2022/10/08 08:56:48;;;;;;;7.85;1.63;;;20.30;99.90;;;;;;5087426;28;20574;-61
2022/10/08 08:59:24;;;;;;;6.65;2.20;;;21.10;99.70;;;;;;5095322;27;20055;-61
2022/10/08 09:01:56;;;;;;;5.20;1.60;;;22.20;98.30;;;;;;5091321;28;20063;-61
2022/10/08 09:04:29;;;;;;;8.55;1.60;;;22.60;96.90;;;;;;5101570;28;20047;-60
2022/10/08 09:06:58;;;;;;;5.05;1.35;;;23.40;95.40;;;;;;5088958;28;20491;-61
2022/10/08 09:09:29;;;;;;;6.18;1.88;;;23.60;94.70;;;;;;5088842;28;20056;-61
2022/10/08 09:11:58;;;;;;;7.43;1.40;;;24.20;94.40;;;;;;5098184;28;20072;-60
2022/10/08 09:14:35;;;;;;;4.93;1.65;;;24.70;93.20;;;;;;5081531;28;20070;-61
2022/10/08 09:17:12;;;;;;;3.95;1.27;;;24.60;91.70;;;;;;5097789;28;20461;-61
2022/10/08 09:19:40;;;;;;;6.35;1.85;;;23.50;92.10;;;;;;5092971;28;20109;-61
2022/10/08 09:22:19;;;;;;;5.85;1.70;;;22.80;93.90;;;;;;5114887;28;20557;-60
2022/10/08 09:24:47;;;;;;;5.00;1.92;;;21.90;95.10;;;;;;5096462;28;20056;-61
2022/10/08 09:27:16;;;;;;;4.50;1.23;;;21.20;96.50;;;;;;5115476;28;20059;-61
2022/10/08 09:29:43;;;;;;;11.95;1.88;;;21.70;96.80;;;;;;5114791;28;20052;-60
2022/10/08 09:32:16;;;;;;;4.38;1.50;;;22.20;95.50;;;;;;5115899;28;20048;-61
2022/10/08 09:34:44;;;;;;;7.50;2.15;;;21.80;94.50;;;;;;5097794;28;20059;-61
2022/10/08 09:37:19;;;;;;;5.45;1.42;;;21.60;94.60;;;;;;5116493;28;20043;-61
2022/10/08 09:40:07;;;;;;;8.05;1.70;;;22.20;93.20;;;;;;5116041;28;20051;-60
2022/10/08 09:42:35;;;;;;;7.85;1.98;;;23.30;91.20;;;;;;5116262;28;20062;-61
2022/10/08 09:45:04;;;;;;;4.50;1.33;;;23.70;92.40;;;;;;5097967;28;20063;-61
2022/10/08 09:47:31;;;;;;;5.53;1.75;;;23.30;92.80;;;;;;5097443;28;20086;-61
2022/10/08 09:50:06;;;;;;;6.47;1.67;;;21.80;94.40;;;;;;5116056;28;20070;-62
2022/10/08 09:52:35;;;;;;;8.27;1.42;;;20.60;95.40;;;;;;5097745;28;20062;-60
2022/10/08 09:55:08;;;;;;;5.55;1.48;;;19.80;98.50;;;;;;5097439;28;20553;-60
2022/10/08 09:57:42;;;;;;;5.75;1.73;;;18.90;99.90;;;;;;5116034;28;20047;-61
2022/10/08 10:00:24;;;;;;;11.32;1.80;;;18.30;99.90;;;;;;5115503;28;20059;-61
2022/10/08 10:02:53;;;;;;;6.68;1.75;;;17.70;99.90;;;;;;5115920;28;20055;-61
2022/10/08 10:05:23;;;;;;;7.47;1.83;;;17.90;99.90;;;;;;5115785;28;20135;-61
2022/10/08 10:07:50;;;;;;;4.40;1.67;;;18.80;99.90;;;;;;5115304;28;20490;-61
2022/10/08 10:10:21;;;;;;;10.57;1.90;;;19.50;99.90;;;;;;5115391;28;20468;-60
2022/10/08 10:12:54;;;;;;;7.00;1.52;;;20.00;99.90;;;;;;5115801;28;20047;-62
2022/10/08 10:15:26;;;;;;;6.55;1.83;;;20.90;99.80;;;;;;5096869;28;20051;-60
2022/10/08 10:17:57;;;;;;;6.30;1.98;;;21.90;98.70;;;;;;5097478;28;20059;-61
2022/10/08 10:20:27;;;;;;;9.65;1.83;;;22.60;96.60;;;;;;5115509;28;20047;-61
2022/10/08 10:22:55;;;;;;;;;;;23.60;95.80;;;;;;5112011;28;20047;-61
2022/10/08 10:25:33;;;;;;;8.13;1.52;;;24.60;94.00;;;;;;5079370;28;20372;-62
2022/10/08 10:28:06;;;;;;;9.70;1.88;;;25.20;92.90;;;;;;5099337;28;20052;-61
2022/10/08 10:30:43;;;;;;;6.40;1.70;;;24.80;91.80;;;;;;5079292;28;20116;-61
2022/10/08 10:33:15;;;;;;;5.05;1.67;;;23.20;90.50;;;;;;5092955;28;20047;-62
2022/10/08 10:35:49;;;;;;;7.20;1.67;;;21.90;91.00;;;;;;5074227;28;20060;-62
2022/10/08 10:38:22;;;;;;;5.13;1.60;;;20.50;92.70;;;;;;5108009;28;20574;-62
2022/10/08 10:41:04;;;;;;;6.45;1.25;;;19.90;94.50;;;;;;5115556;27;20055;-61
2022/10/08 10:43:43;;;;;;;9.50;1.60;;;20.90;94.30;;;;;;5105288;28;20483;-61
2022/10/08 10:46:22;;;;;;;8.60;1.60;;;22.10;92.20;;;;;;5093834;28;20056;-60
2022/10/08 10:48:49;;;;;;;7.63;1.70;;;23.30;91.30;;;;;;5097087;28;20109;-61
2022/10/08 10:51:29;;;;;;;10.88;2.20;;;24.30;91.00;;;;;;5094254;28;20051;-61
2022/10/08 10:54:08;;;;;;;9.13;2.13;;;24.90;88.30;;;;;;5107722;28;20051;-61
2022/10/08 10:56:41;;;;;;;7.43;1.55;;;23.50;88.00;;;;;;5092129;28;20548;-62
2022/10/08 10:59:24;;;;;;;7.15;1.48;;;22.10;91.60;;;;;;5092543;28;20126;-60
2022/10/08 11:01:59;;;;;;;7.63;1.92;;;21.50;92.00;;;;;;5098464;28;20101;-61
2022/10/08 11:04:38;;;;;;;5.90;1.90;;;21.00;92.30;;;;;;5091440;28;20051;-62
2022/10/08 11:07:15;;;;;;;8.38;2.28;;;20.70;93.10;;;;;;5077999;28;20449;-60
2022/10/08 11:09:50;;;;;;;9.02;1.77;;;19.80;95.00;;;;;;5092923;28;20088;-60
2022/10/08 11:12:30;;;;;;;9.00;2.50;;;19.10;96.70;;;;;;5076441;28;20036;-61
2022/10/08 11:15:08;;;;;;;7.18;1.90;;;19.00;98.60;;;;;;5099760;28;20055;-61
2022/10/08 11:17:51;;;;;;;6.63;2.03;;;20.30;98.70;;;;;;5095695;28;20487;-62
2022/10/08 11:20:28;;;;;;;7.38;2.03;;;21.60;95.50;;;;;;5101350;28;20051;-61
2022/10/08 11:22:59;;;;;;;3.60;1.50;;;22.00;94.20;;;;;;5095969;28;20052;-62
2022/10/08 11:25:36;;;;;;;6.18;1.73;;;21.60;94.50;;;;;;5093665;28;20043;-61
2022/10/08 11:28:19;;;;;;;7.60;2.15;;;21.30;94.40;;;;;;5079972;28;20063;-62
2022/10/08 11:30:55;;;;;;;10.27;2.90;;;20.80;95.40;;;;;;5111638;28;20056;-61
2022/10/08 11:33:23;;;;;;;7.15;1.90;;;20.80;95.90;;;;;;5105346;28;20047;-62
2022/10/08 11:36:18;;;;;;;5.07;1.60;;;21.80;95.30;;;;;;5092584;28;20059;-61
2022/10/08 11:38:51;;;;;;;4.65;2.30;;;21.60;93.20;;;;;;5111018;28;20483;-62
2022/10/08 11:41:41;;;;;;;5.85;2.97;;;21.70;93.30;;;;;;5099330;28;20579;-62
2022/10/08 11:44:10;;;;;;;7.10;1.90;;;21.40;95.30;;;;;;5094504;28;20063;-60
2022/10/08 11:46:38;;;;;;;7.43;1.50;;;19.90;95.30;;;;;;5093705;28;20051;-62
2022/10/08 11:49:49;;;;;;;5.15;1.83;;;18.90;96.90;;;;;;5112300;28;20399;-61
2022/10/08 11:52:16;;;;;;;5.22;1.30;;;17.90;99.20;;;;;;5094265;28;20479;-62
2022/10/08 11:54:49;;;;;;;6.97;1.60;;;17.30;99.90;;;;;;5111417;28;20062;-60
2022/10/08 11:57:20;;;;;;;6.60;1.95;;;17.00;99.90;;;;;;5111807;28;20406;-61
2022/10/08 11:59:57;;;;;;;4.10;0.93;;;18.10;99.90;;;;;;5093674;28;20089;-60
2022/10/08 12:02:42;;;;;;;3.92;1.45;;;19.70;99.90;;;;;;5109471;28;20096;-62
2022/10/08 12:05:34;;;;;;;8.32;1.75;;;21.10;96.90;;;;;;5094198;28;20150;-61
2022/10/08 12:08:04;;;;;;;5.35;1.30;;;22.10;96.10;;;;;;5111754;28;20108;-61
2022/10/08 12:10:33;;;;;;;6.25;1.55;;;23.10;94.80;;;;;;5111647;28;20486;-61
2022/10/08 12:13:26;;;;;;;5.03;1.50;;;23.60;94.30;;;;;;5093510;28;20048;-61
2022/10/08 12:16:03;;;;;;;4.43;1.20;;;24.50;91.20;;;;;;5091196;28;20461;-60
2022/10/08 12:18:53;;;;;;;5.60;1.50;;;25.30;91.90;;;;;;5091953;28;20055;-60
2022/10/08 12:21:53;;;;;;;6.10;1.95;;;25.00;88.60;;;;;;5110873;28;20079;-60
2022/10/08 12:24:58;;;;;;;7.32;1.73;;;25.10;89.70;;;;;;5111634;28;20460;-61
2022/10/08 12:27:31;;;;;;;10.38;1.88;;;25.40;86.60;;;;;;5109808;28;20452;-62
2022/10/08 12:30:00;;;;;;;8.38;1.60;;;26.20;86.70;;;;;;5108734;28;20457;-61
2022/10/08 12:32:28;;;;;;;13.68;2.22;;;26.20;85.20;;;;;;5111246;28;20039;-60
2022/10/08 12:34:57;;;;;;;7.35;1.83;;;27.00;85.90;;;;;;5110417;28;20051;-61
2022/10/08 12:37:52;;;;;;;5.82;1.45;;;26.80;81.70;;;;;;5111585;28;20047;-63
2022/10/08 12:40:30;;;;;;;5.03;1.30;;;25.50;86.30;;;;;;5090014;28;20074;-61
2022/10/08 12:43:09;;;;;;;2.70;1.10;;;25.60;85.80;;;;;;5092880;28;20075;-62
2022/10/08 12:45:46;;;;;;;3.63;1.10;;;25.20;82.90;;;;;;5111962;28;20040;-62
2022/10/08 12:48:28;;;;;;;6.78;1.30;;;24.00;84.50;;;;;;5092389;28;20336;-61
2022/10/08 12:51:08;;;;;;;6.18;1.95;;;22.70;88.80;;;;;;5110818;28;20048;-62
2022/10/08 12:53:35;;;;;;;5.40;1.38;;;21.60;90.50;;;;;;5111379;28;20099;-61
2022/10/08 12:56:02;;;;;;;8.10;1.85;;;20.60;92.10;;;;;;5111513;28;20051;-62
2022/10/08 12:58:33;;;;;;;4.68;1.70;;;19.40;95.70;;;;;;5111516;28;20047;-62
2022/10/08 13:01:02;;;;;;;4.80;1.33;;;18.20;99.10;;;;;;5112356;28;20097;-60
2022/10/08 13:03:29;;;;;;;6.28;1.77;;;16.90;99.90;;;;;;5092752;28;20433;-61
2022/10/08 13:05:58;;;;;;;3.08;0.82;;;16.40;99.90;;;;;;5111669;28;20395;-61
2022/10/08 13:08:30;;;;;;;2.97;1.08;;;15.80;99.90;;;;;;5093247;28;20571;-61